Time;durP1;ratioP1;P1;durP2;ratioP2;P2;SDS_P1;SDS_P2;PMS_P1;PMS_P2;Temp;Humidity;BMP_temperature;BMP_pressure;BME280_temperature;BME280_humidity;BME280_pressure;Samples;Min_cycle;Max_cycle;Signal;HPM_P1;HPM_P2
2023/11/28 00:01:44;;;;;;;31.70;15.30;;;3.40;99.90;;;;;;5046048;28;20285;-51
2023/11/28 00:04:12;;;;;;;31.17;14.83;;;3.50;99.90;;;;;;5046574;28;20289;-51
2023/11/28 00:06:42;;;;;;;37.70;16.20;;;3.50;99.90;;;;;;5049704;28;20217;-54
2023/11/28 00:09:11;;;;;;;30.73;15.27;;;3.50;99.90;;;;;;5045982;28;20240;-55
2023/11/28 00:11:39;;;;;;;33.00;16.30;;;3.50;99.90;;;;;;5037789;28;20232;-55
2023/11/28 00:14:07;;;;;;;35.07;16.00;;;3.50;99.90;;;;;;5049874;28;20221;-54
2023/11/28 00:16:36;;;;;;;29.97;15.50;;;3.40;99.90;;;;;;5048779;28;20227;-53
2023/11/28 00:19:04;;;;;;;31.87;15.90;;;3.50;99.90;;;;;;5043349;28;20286;-52
2023/11/28 00:21:32;;;;;;;33.80;16.90;;;3.50;99.90;;;;;;5040848;28;20240;-52
2023/11/28 00:24:02;;;;;;;32.73;16.50;;;3.50;99.90;;;;;;5044914;28;20247;-52
2023/11/28 00:26:31;;;;;;;33.27;16.13;;;3.50;99.90;;;;;;5045546;28;20232;-54
2023/11/28 00:28:59;;;;;;;33.80;16.27;;;3.60;99.90;;;;;;5044415;28;20228;-54
2023/11/28 00:31:27;;;;;;;34.23;16.30;;;3.60;99.90;;;;;;5044296;28;20208;-55
2023/11/28 00:33:55;;;;;;;31.90;16.00;;;3.60;99.90;;;;;;5046777;28;20239;-53
2023/11/28 00:36:24;;;;;;;31.90;16.00;;;3.60;99.90;;;;;;5045317;28;20318;-54
2023/11/28 00:38:53;;;;;;;34.87;17.27;;;3.60;99.90;;;;;;5047966;28;20213;-55
2023/11/28 00:41:24;;;;;;;30.17;16.17;;;3.60;99.90;;;;;;5045802;28;20228;-54
2023/11/28 00:43:54;;;;;;;33.03;16.20;;;3.60;99.90;;;;;;5048493;28;20731;-55
2023/11/28 00:46:22;;;;;;;35.37;16.20;;;3.60;99.90;;;;;;5045614;28;20189;-55
2023/11/28 00:48:51;;;;;;;32.43;16.53;;;3.60;99.90;;;;;;5043538;28;20247;-60
2023/11/28 00:51:19;;;;;;;30.40;16.37;;;3.60;99.90;;;;;;5044805;28;20213;-54
2023/11/28 00:53:47;;;;;;;31.33;16.33;;;3.60;99.90;;;;;;5044140;28;20676;-57
2023/11/28 00:56:19;;;;;;;35.07;16.27;;;3.60;99.90;;;;;;5047278;28;20221;-54
2023/11/28 00:58:49;;;;;;;30.97;16.17;;;3.60;99.90;;;;;;5047581;28;20465;-52
2023/11/28 01:01:18;;;;;;;31.07;16.03;;;3.60;99.90;;;;;;5048237;28;20197;-54
2023/11/28 01:03:47;;;;;;;29.83;16.33;;;3.50;99.90;;;;;;5043769;28;20237;-52
2023/11/28 01:06:15;;;;;;;30.03;15.27;;;3.50;99.90;;;;;;5046070;28;20303;-54
2023/11/28 01:08:44;;;;;;;29.20;15.33;;;3.50;99.90;;;;;;5047396;28;20216;-56
2023/11/28 01:11:13;;;;;;;29.77;15.97;;;3.50;99.90;;;;;;5044964;28;20245;-53
2023/11/28 01:13:41;;;;;;;28.20;15.93;;;3.60;99.90;;;;;;5040786;28;20201;-52
2023/11/28 01:16:13;;;;;;;29.57;15.47;;;3.60;99.90;;;;;;5046283;28;20235;-52
2023/11/28 01:18:41;;;;;;;28.17;15.90;;;3.50;99.90;;;;;;5048024;28;20717;-53
2023/11/28 01:21:09;;;;;;;28.63;15.73;;;3.50;99.90;;;;;;5042160;28;20300;-53
2023/11/28 01:23:38;;;;;;;29.03;15.00;;;3.50;99.90;;;;;;5042301;28;20231;-54
2023/11/28 01:26:07;;;;;;;27.23;14.87;;;3.60;99.90;;;;;;5048553;28;20225;-56
2023/11/28 01:28:35;;;;;;;23.93;15.27;;;3.60;99.90;;;;;;5042138;28;20189;-54
2023/11/28 01:31:04;;;;;;;26.97;14.53;;;3.50;99.90;;;;;;5044464;28;20225;-53
2023/11/28 01:33:34;;;;;;;25.17;14.27;;;3.60;99.90;;;;;;5044977;28;20216;-55
2023/11/28 01:36:05;;;;;;;24.40;13.77;;;3.60;99.90;;;;;;5044920;28;20225;-56
2023/11/28 01:38:33;;;;;;;23.37;14.50;;;3.50;99.90;;;;;;5045107;28;20220;-53
2023/11/28 01:41:01;;;;;;;22.13;13.50;;;3.50;99.90;;;;;;5045165;28;20189;-55
2023/11/28 01:43:30;;;;;;;24.30;14.23;;;3.50;99.90;;;;;;5046413;28;20208;-55
2023/11/28 01:45:59;;;;;;;22.33;12.97;;;3.60;99.90;;;;;;5051421;28;20216;-54
2023/11/28 01:48:27;;;;;;;24.60;13.43;;;3.60;99.90;;;;;;5045292;28;20266;-55
2023/11/28 01:50:57;;;;;;;20.67;13.50;;;3.60;99.90;;;;;;5042814;28;20609;-58
2023/11/28 01:53:25;;;;;;;25.33;13.60;;;3.60;99.90;;;;;;5045692;28;20212;-55
2023/11/28 01:55:54;;;;;;;20.17;13.13;;;3.60;99.90;;;;;;5039296;28;20188;-55
2023/11/28 01:58:22;;;;;;;20.97;12.73;;;3.60;99.90;;;;;;5043295;28;20605;-53
2023/11/28 02:00:51;;;;;;;22.50;13.27;;;3.60;99.90;;;;;;5044671;28;20222;-54
2023/11/28 02:03:20;;;;;;;20.93;13.13;;;3.60;99.90;;;;;;5041534;28;20232;-56
2023/11/28 02:05:49;;;;;;;19.83;12.00;;;3.60;99.90;;;;;;5045033;28;20627;-56
2023/11/28 02:08:20;;;;;;;21.90;12.57;;;3.60;99.90;;;;;;5046514;28;20231;-55
2023/11/28 02:10:49;;;;;;;18.27;12.07;;;3.60;99.90;;;;;;5043584;28;20614;-54
2023/11/28 02:13:18;;;;;;;17.27;11.87;;;3.70;99.90;;;;;;5040936;28;20799;-55
2023/11/28 02:15:47;;;;;;;18.97;11.93;;;3.70;99.90;;;;;;5037418;28;20213;-53
2023/11/28 02:18:18;;;;;;;18.67;12.27;;;3.60;99.90;;;;;;5043693;28;20220;-53
2023/11/28 02:20:46;;;;;;;17.97;12.03;;;3.60;99.90;;;;;;5045428;28;20290;-53
2023/11/28 02:23:14;;;;;;;18.70;11.83;;;3.60;99.90;;;;;;5039194;28;20225;-53
2023/11/28 02:25:47;;;;;;;16.30;11.40;;;3.60;99.90;;;;;;5040518;28;20576;-53
2023/11/28 02:28:21;;;;;;;14.97;11.07;;;3.60;99.90;;;;;;5044052;28;20255;-52
2023/11/28 02:30:50;;;;;;;14.77;10.70;;;3.50;99.90;;;;;;5042041;28;20298;-54
2023/11/28 02:33:19;;;;;;;15.80;11.17;;;3.50;99.90;;;;;;5043351;28;20232;-54
2023/11/28 02:35:47;;;;;;;14.60;10.87;;;3.50;99.90;;;;;;5045264;28;20303;-51
2023/11/28 02:38:15;;;;;;;16.13;10.10;;;3.60;99.90;;;;;;5046685;28;20551;-51
2023/11/28 02:40:44;;;;;;;14.70;10.87;;;3.50;99.90;;;;;;5045591;28;20191;-50
2023/11/28 02:43:12;;;;;;;13.73;10.77;;;3.50;99.90;;;;;;5045259;28;20271;-54
2023/11/28 02:45:45;;;;;;;11.57;10.30;;;3.50;99.90;;;;;;5044593;28;20230;-51
2023/11/28 02:48:13;;;;;;;12.53;10.23;;;3.40;99.90;;;;;;5043788;28;20316;-52
2023/11/28 02:50:41;;;;;;;12.80;10.00;;;3.40;99.90;;;;;;5038860;28;20224;-53
2023/11/28 02:53:10;;;;;;;12.97;9.77;;;3.40;99.90;;;;;;5041798;28;20221;-54
2023/11/28 02:55:38;;;;;;;13.00;9.93;;;3.40;99.90;;;;;;5047218;28;20188;-55
2023/11/28 02:58:06;;;;;;;14.03;10.97;;;3.40;99.90;;;;;;5045883;28;20228;-54
2023/11/28 03:00:35;;;;;;;12.43;10.30;;;3.40;99.90;;;;;;5042810;28;20227;-51
2023/11/28 03:03:07;;;;;;;13.67;10.20;;;3.40;99.90;;;;;;5042687;28;20222;-50
2023/11/28 03:05:35;;;;;;;12.03;9.73;;;3.40;99.90;;;;;;5045700;28;20693;-51
2023/11/28 03:08:04;;;;;;;14.40;9.80;;;3.50;99.90;;;;;;5041649;28;20196;-52
2023/11/28 03:10:32;;;;;;;11.93;10.03;;;3.40;99.90;;;;;;5048267;28;20663;-54
2023/11/28 03:13:00;;;;;;;14.17;10.57;;;3.40;99.90;;;;;;5041221;28;20779;-52
2023/11/28 03:15:29;;;;;;;13.53;10.27;;;3.40;99.90;;;;;;5041484;28;20212;-52
2023/11/28 03:17:57;;;;;;;14.30;10.70;;;3.40;99.90;;;;;;5045730;28;20221;-53
2023/11/28 03:20:26;;;;;;;14.70;10.97;;;3.40;99.90;;;;;;5043413;28;20691;-52
2023/11/28 03:22:53;;;;;;;13.77;11.13;;;3.40;99.90;;;;;;5046562;28;20193;-52
2023/11/28 03:25:22;;;;;;;14.83;11.57;;;3.30;99.90;;;;;;5044162;28;20278;-54
2023/11/28 03:27:50;;;;;;;14.77;11.43;;;3.30;99.90;;;;;;5039066;28;20213;-56
2023/11/28 03:30:21;;;;;;;16.27;11.63;;;3.40;99.90;;;;;;5037677;28;20764;-51
2023/11/28 03:32:50;;;;;;;16.67;11.83;;;3.40;99.90;;;;;;5043117;28;20700;-50
2023/11/28 03:35:18;;;;;;;16.57;12.20;;;3.40;99.90;;;;;;5039991;28;20313;-54
2023/11/28 03:37:49;;;;;;;18.70;13.13;;;3.30;99.90;;;;;;5047120;28;20236;-51
2023/11/28 03:40:17;;;;;;;16.43;12.07;;;3.30;99.90;;;;;;5041314;28;20197;-53
2023/11/28 03:42:45;;;;;;;17.10;12.40;;;3.30;99.90;;;;;;5041204;28;20522;-55
2023/11/28 03:45:13;;;;;;;17.03;12.50;;;3.30;99.90;;;;;;5049134;28;20221;-53
2023/11/28 03:47:42;;;;;;;16.07;12.30;;;3.30;99.90;;;;;;5045670;28;20213;-54
2023/11/28 03:50:11;;;;;;;19.13;12.70;;;3.40;99.90;;;;;;5048742;28;20622;-50
2023/11/28 03:52:40;;;;;;;15.83;12.40;;;3.40;99.90;;;;;;5042157;28;20189;-52
2023/11/28 03:55:10;;;;;;;17.43;12.47;;;3.40;99.90;;;;;;5046518;28;20232;-55
2023/11/28 03:57:38;;;;;;;18.27;12.97;;;3.40;99.90;;;;;;5049392;28;20263;-53
2023/11/28 04:00:09;;;;;;;17.77;12.63;;;3.40;99.90;;;;;;5043963;28;20236;-56
2023/11/28 04:02:38;;;;;;;18.03;12.60;;;3.40;99.90;;;;;;5045485;28;20225;-55
2023/11/28 04:05:08;;;;;;;18.33;12.57;;;3.40;99.90;;;;;;5047824;28;20615;-52
2023/11/28 04:07:39;;;;;;;14.93;11.03;;;3.40;99.90;;;;;;5046057;28;20188;-54
2023/11/28 04:10:10;;;;;;;13.20;10.17;;;3.50;99.90;;;;;;5045036;28;20219;-52
2023/11/28 04:12:38;;;;;;;10.63;8.67;;;3.50;99.90;;;;;;5052296;28;20224;-54
2023/11/28 04:15:07;;;;;;;11.00;9.63;;;3.50;99.90;;;;;;5051824;28;20828;-50
2023/11/28 04:17:35;;;;;;;10.30;8.97;;;3.50;99.90;;;;;;5045150;28;20300;-52
2023/11/28 04:20:05;;;;;;;9.07;8.13;;;3.50;99.90;;;;;;5052552;28;20281;-55
2023/11/28 04:22:34;;;;;;;11.33;8.50;;;3.50;99.90;;;;;;5045065;28;20280;-51
2023/11/28 04:25:05;;;;;;;8.50;7.70;;;3.50;99.90;;;;;;5046989;28;20275;-51
2023/11/28 04:27:35;;;;;;;9.20;7.87;;;3.50;99.90;;;;;;5044299;28;20606;-54
2023/11/28 04:30:03;;;;;;;10.13;9.03;;;3.50;99.90;;;;;;5045872;28;20224;-54
2023/11/28 04:32:31;;;;;;;9.07;8.17;;;3.50;99.90;;;;;;5042040;28;20231;-54
2023/11/28 04:35:00;;;;;;;9.70;8.60;;;3.60;99.90;;;;;;5042260;28;20548;-54
2023/11/28 04:37:28;;;;;;;9.20;8.23;;;3.50;99.90;;;;;;5046592;28;20668;-53
2023/11/28 04:39:56;;;;;;;11.20;8.97;;;3.50;99.90;;;;;;5045007;28;20217;-55
2023/11/28 04:42:25;;;;;;;9.63;8.63;;;3.50;99.90;;;;;;5046054;28;20606;-53
2023/11/28 04:44:54;;;;;;;10.67;9.03;;;3.50;99.90;;;;;;5040892;28;20217;-54
2023/11/28 04:47:23;;;;;;;10.97;9.13;;;3.50;99.90;;;;;;5045633;28;20216;-54
2023/11/28 04:49:51;;;;;;;10.10;9.00;;;3.50;99.90;;;;;;5050090;28;20239;-54
2023/11/28 04:52:19;;;;;;;10.60;8.77;;;3.60;99.90;;;;;;5045985;28;20216;-53
2023/11/28 04:54:47;;;;;;;9.43;8.13;;;3.50;99.90;;;;;;5046947;28;20217;-55
2023/11/28 04:57:16;;;;;;;12.13;9.10;;;3.50;99.90;;;;;;5042425;28;20221;-54
2023/11/28 04:59:44;;;;;;;11.77;9.73;;;3.50;99.90;;;;;;5047395;28;20243;-53
2023/11/28 05:02:14;;;;;;;10.77;8.90;;;3.50;99.90;;;;;;5042837;28;20216;-54
2023/11/28 05:04:43;;;;;;;12.70;9.27;;;3.50;99.90;;;;;;5045027;28;20596;-53
2023/11/28 05:07:13;;;;;;;11.47;9.30;;;3.60;99.90;;;;;;5044121;28;20217;-55
2023/11/28 05:09:41;;;;;;;10.33;8.90;;;3.60;99.90;;;;;;5042959;28;20213;-54
2023/11/28 05:12:10;;;;;;;10.77;9.00;;;3.60;99.90;;;;;;5043051;28;20328;-55
2023/11/28 05:14:38;;;;;;;9.90;8.90;;;3.60;99.90;;;;;;5046067;28;20307;-52
2023/11/28 05:17:07;;;;;;;10.63;8.90;;;3.60;99.90;;;;;;5044263;28;20243;-51
2023/11/28 05:19:36;;;;;;;10.87;8.80;;;3.60;99.90;;;;;;5048930;28;20651;-53
2023/11/28 05:22:05;;;;;;;12.17;8.80;;;3.50;99.90;;;;;;5042402;28;20245;-52
2023/11/28 05:24:33;;;;;;;10.33;8.83;;;3.60;99.90;;;;;;5047459;28;20558;-52
2023/11/28 05:27:01;;;;;;;11.57;8.30;;;3.60;99.90;;;;;;5049492;28;20216;-53
2023/11/28 05:29:29;;;;;;;10.13;8.67;;;3.60;99.90;;;;;;5044674;28;20304;-53
2023/11/28 05:31:57;;;;;;;10.10;9.00;;;3.60;99.90;;;;;;5044022;28;20263;-53
2023/11/28 05:34:26;;;;;;;12.03;8.93;;;3.60;99.90;;;;;;5044633;28;20220;-49
2023/11/28 05:36:55;;;;;;;11.47;9.10;;;3.60;99.90;;;;;;5043550;28;20244;-51
2023/11/28 05:39:24;;;;;;;14.50;9.40;;;3.60;99.90;;;;;;5050663;28;20224;-53
2023/11/28 05:41:52;;;;;;;10.83;8.40;;;3.50;99.90;;;;;;5046944;28;20219;-52
2023/11/28 05:44:20;;;;;;;8.03;7.23;;;3.50;99.90;;;;;;5042972;28;20307;-49
2023/11/28 05:46:48;;;;;;;9.17;7.57;;;3.50;99.90;;;;;;5045466;28;20640;-50
2023/11/28 05:49:17;;;;;;;7.43;6.67;;;3.50;99.90;;;;;;5045516;28;20205;-49
2023/11/28 05:51:45;;;;;;;8.70;6.70;;;3.40;99.90;;;;;;5045459;28;20608;-50
2023/11/28 05:54:16;;;;;;;8.97;6.20;;;3.40;99.90;;;;;;5038471;28;20237;-53
2023/11/28 05:56:44;;;;;;;7.97;7.17;;;3.40;99.90;;;;;;5046782;28;20235;-52
2023/11/28 05:59:12;;;;;;;7.10;6.40;;;3.40;99.90;;;;;;5039513;28;20224;-51
2023/11/28 06:01:59;;;;;;;9.60;6.37;;;3.40;99.90;;;;;;5044831;28;20241;-50
2023/11/28 06:04:29;;;;;;;8.20;7.03;;;3.40;99.90;;;;;;5041120;28;20229;-55
2023/11/28 06:06:58;;;;;;;7.53;6.73;;;3.40;99.90;;;;;;5042120;28;20228;-51
2023/11/28 06:09:28;;;;;;;8.27;6.40;;;3.30;99.90;;;;;;5042936;28;20290;-53
2023/11/28 06:11:56;;;;;;;8.80;6.67;;;3.30;99.90;;;;;;5038771;28;20275;-51
2023/11/28 06:14:28;;;;;;;7.87;7.07;;;3.40;99.90;;;;;;5045557;28;20591;-49
2023/11/28 06:16:56;;;;;;;9.83;7.07;;;3.40;99.90;;;;;;5044755;28;20203;-53
2023/11/28 06:19:24;;;;;;;10.70;7.20;;;3.30;99.90;;;;;;5045200;28;20728;-54
2023/11/28 06:21:52;;;;;;;7.97;7.17;;;3.30;99.90;;;;;;5040042;28;20224;-53
2023/11/28 06:24:21;;;;;;;8.53;7.47;;;3.40;99.90;;;;;;5041373;28;20740;-51
2023/11/28 06:26:50;;;;;;;7.70;6.90;;;3.30;99.90;;;;;;5039578;28;20716;-51
2023/11/28 06:29:18;;;;;;;9.13;7.87;;;3.30;99.90;;;;;;5049690;28;20228;-50
2023/11/28 06:31:47;;;;;;;9.27;8.13;;;3.30;99.90;;;;;;5044045;28;20279;-52
2023/11/28 06:34:15;;;;;;;12.20;8.53;;;3.30;99.90;;;;;;5047566;28;20594;-52
2023/11/28 06:36:44;;;;;;;11.53;8.93;;;3.30;99.90;;;;;;5042882;28;20252;-54
2023/11/28 06:39:12;;;;;;;9.27;8.23;;;3.20;99.90;;;;;;5042281;28;20308;-53
2023/11/28 06:41:40;;;;;;;9.23;8.33;;;3.10;99.90;;;;;;5044282;28;20231;-53
2023/11/28 06:44:11;;;;;;;14.73;8.80;;;3.10;99.90;;;;;;5042848;28;20240;-54
2023/11/28 06:46:40;;;;;;;10.90;8.90;;;3.00;99.90;;;;;;5038963;28;20235;-51
2023/11/28 06:49:08;;;;;;;12.23;9.30;;;2.90;99.90;;;;;;5039273;28;20541;-49
2023/11/28 06:51:36;;;;;;;11.23;9.30;;;2.90;99.90;;;;;;5045111;28;20227;-52
2023/11/28 06:54:05;;;;;;;11.13;9.27;;;2.90;99.90;;;;;;5040492;28;20233;-55
2023/11/28 06:56:33;;;;;;;12.00;9.83;;;2.90;99.90;;;;;;5042253;28;20240;-48
2023/11/28 06:59:01;;;;;;;11.17;9.07;;;2.90;99.90;;;;;;5044052;28;20713;-54
2023/11/28 07:01:31;;;;;;;11.73;9.53;;;2.80;99.90;;;;;;5045662;28;20193;-49
2023/11/28 07:03:59;;;;;;;12.67;9.43;;;2.80;99.90;;;;;;5040813;28;20212;-50
2023/11/28 07:06:27;;;;;;;14.03;9.00;;;2.70;99.90;;;;;;5043444;28;20221;-53
2023/11/28 07:08:56;;;;;;;12.30;9.10;;;2.60;99.90;;;;;;5046342;28;20221;-55
2023/11/28 07:11:24;;;;;;;11.03;8.87;;;2.70;99.90;;;;;;5042440;28;20236;-53
2023/11/28 07:13:52;;;;;;;11.87;8.63;;;2.60;99.90;;;;;;5047140;28;20220;-53
2023/11/28 07:16:21;;;;;;;9.93;8.33;;;2.60;99.90;;;;;;5041761;28;20207;-52
2023/11/28 07:18:50;;;;;;;10.27;7.80;;;2.60;99.90;;;;;;5043550;28;20221;-52
2023/11/28 07:21:19;;;;;;;9.73;7.73;;;2.50;99.90;;;;;;5044046;28;20319;-49
2023/11/28 07:23:47;;;;;;;10.83;7.60;;;2.40;99.90;;;;;;5043786;28;20263;-53
2023/11/28 07:26:15;;;;;;;9.57;7.30;;;2.40;99.90;;;;;;5046087;28;20610;-50
2023/11/28 07:28:44;;;;;;;7.73;6.93;;;2.40;99.90;;;;;;5044579;28;20184;-55
2023/11/28 07:31:14;;;;;;;9.07;6.93;;;2.30;99.90;;;;;;5049637;28;20221;-50
2023/11/28 07:33:42;;;;;;;8.83;6.50;;;2.30;99.90;;;;;;5044289;28;20228;-51
2023/11/28 07:36:13;;;;;;;8.50;6.30;;;2.20;99.90;;;;;;5042225;28;20223;-52
2023/11/28 07:38:44;;;;;;;12.88;8.50;;;2.00;99.90;;;;;;5044988;28;20930;-53
2023/11/28 07:41:14;;;;;;;14.87;8.73;;;1.90;99.90;;;;;;5044502;28;20254;-54
2023/11/28 07:43:42;;;;;;;12.10;6.90;;;1.80;99.90;;;;;;5049783;28;20181;-54
2023/11/28 07:46:12;;;;;;;6.83;6.13;;;1.70;99.90;;;;;;5052315;28;20215;-55
2023/11/28 07:48:41;;;;;;;11.00;5.80;;;1.70;99.90;;;;;;5046657;28;20270;-52
2023/11/28 07:51:10;;;;;;;6.73;6.03;;;1.60;99.90;;;;;;5043861;28;20229;-52
2023/11/28 07:53:39;;;;;;;8.23;5.90;;;1.50;99.90;;;;;;5046465;28;20687;-53
2023/11/28 07:56:09;;;;;;;6.87;5.40;;;;;;;;;;5046466;28;20331;-54
2023/11/28 07:58:38;;;;;;;6.03;5.43;;;1.50;99.90;;;;;;5049080;28;20199;-53
2023/11/28 08:01:07;;;;;;;6.60;5.23;;;1.50;99.90;;;;;;5027272;28;20583;-54
2023/11/28 08:03:35;;;;;;;5.57;5.13;;;1.40;99.90;;;;;;5023119;28;20343;-54
2023/11/28 08:06:06;;;;;;;5.37;4.80;;;1.40;99.90;;;;;;5025551;28;20554;-54
2023/11/28 08:08:35;;;;;;;5.00;4.53;;;1.30;99.90;;;;;;5028228;28;20221;-54
2023/11/28 08:11:05;;;;;;;6.73;5.10;;;1.30;99.90;;;;;;5025821;28;20217;-50
2023/11/28 08:13:33;;;;;;;8.60;5.07;;;1.30;99.90;;;;;;5020286;28;20206;-50
2023/11/28 08:16:02;;;;;;;9.60;5.47;;;1.30;99.90;;;;;;5027709;28;20733;-49
2023/11/28 08:18:30;;;;;;;6.23;5.50;;;1.30;99.90;;;;;;5021565;28;20233;-51
2023/11/28 08:21:09;;;;;;;6.07;5.27;;;1.30;99.90;;;;;;5022188;28;20256;-53
2023/11/28 08:23:37;;;;;;;5.87;5.17;;;1.20;99.90;;;;;;5031738;28;20294;-52
2023/11/28 08:26:07;;;;;;;5.63;5.10;;;1.20;99.90;;;;;;5023688;28;21189;-51
2023/11/28 08:28:36;;;;;;;10.57;6.40;;;1.30;99.90;;;;;;5028223;28;20215;-53
2023/11/28 08:31:05;;;;;;;6.20;5.60;;;1.30;99.90;;;;;;5024899;28;20322;-50
2023/11/28 08:33:33;;;;;;;5.00;4.50;;;1.30;99.90;;;;;;5031178;28;20216;-52
2023/11/28 08:36:02;;;;;;;5.30;4.80;;;1.30;99.90;;;;;;5023581;28;20217;-51
2023/11/28 08:38:31;;;;;;;4.83;4.40;;;1.30;99.90;;;;;;5021384;28;20213;-50
2023/11/28 08:41:01;;;;;;;6.70;5.13;;;1.30;99.90;;;;;;5028087;28;20186;-50
2023/11/28 08:43:30;;;;;;;4.63;4.10;;;1.30;99.90;;;;;;5022783;28;20596;-49
2023/11/28 08:45:59;;;;;;;7.30;4.30;;;1.40;99.90;;;;;;5029536;28;20330;-51
2023/11/28 08:48:27;;;;;;;4.87;4.47;;;1.40;99.90;;;;;;5026355;28;20225;-50
2023/11/28 08:50:55;;;;;;;6.13;4.40;;;1.40;99.90;;;;;;5027350;28;20253;-52
2023/11/28 08:53:23;;;;;;;5.00;4.60;;;1.40;99.90;;;;;;5021956;28;20310;-50
2023/11/28 08:55:52;;;;;;;4.90;4.50;;;1.50;99.90;;;;;;5026912;28;20564;-50
2023/11/28 08:58:20;;;;;;;4.90;4.50;;;1.50;99.90;;;;;;5026372;28;20220;-51
2023/11/28 09:00:53;;;;;;;4.40;4.00;;;1.60;99.90;;;;;;5022661;28;20224;-50
2023/11/28 09:03:21;;;;;;;4.47;4.07;;;1.60;99.90;;;;;;5026120;28;20221;-53
2023/11/28 09:05:50;;;;;;;4.37;4.07;;;1.70;99.90;;;;;;5024217;28;20542;-49
2023/11/28 09:08:18;;;;;;;4.63;4.27;;;1.80;99.90;;;;;;5027628;28;20245;-50
2023/11/28 09:10:47;;;;;;;5.77;4.17;;;1.90;99.90;;;;;;5021480;28;20205;-51
2023/11/28 09:13:15;;;;;;;4.30;3.90;;;1.90;99.90;;;;;;5029394;28;20201;-54
2023/11/28 09:15:44;;;;;;;6.10;4.30;;;2.00;99.90;;;;;;5021238;28;20229;-49
2023/11/28 09:18:13;;;;;;;7.90;4.33;;;2.10;99.90;;;;;;5025982;28;20680;-53
2023/11/28 09:20:42;;;;;;;5.20;4.13;;;2.30;99.90;;;;;;5024762;28;20300;-53
2023/11/28 09:23:10;;;;;;;4.33;3.93;;;2.30;99.90;;;;;;5026384;28;20217;-50
2023/11/28 09:25:38;;;;;;;6.43;4.47;;;2.40;99.20;;;;;;5021721;28;20577;-52
2023/11/28 09:28:16;;;;;;;4.40;3.97;;;2.60;99.70;;;;;;5026049;28;20222;-53
2023/11/28 09:30:45;;;;;;;5.20;4.03;;;2.70;97.50;;;;;;5026503;28;20221;-53
2023/11/28 09:33:14;;;;;;;3.93;3.50;;;2.80;90.90;;;;;;5023719;28;20595;-54
2023/11/28 09:35:44;;;;;;;3.90;3.70;;;2.90;95.50;;;;;;5025160;28;20233;-55
2023/11/28 09:38:13;;;;;;;4.70;3.53;;;3.00;93.20;;;;;;5026723;28;20350;-51
2023/11/28 09:40:41;;;;;;;4.60;4.17;;;3.10;88.30;;;;;;5026567;28;20194;-54
2023/11/28 09:43:11;;;;;;;4.07;3.77;;;3.20;79.90;;;;;;5023736;28;20221;-51
2023/11/28 09:45:41;;;;;;;6.90;4.30;;;3.20;67.40;;;;;;5028067;28;20243;-53
2023/11/28 09:48:13;;;;;;;3.70;3.50;;;3.40;76.90;;;;;;5023571;28;20698;-52
2023/11/28 09:50:47;;;;;;;4.43;4.13;;;3.50;49.90;;;;;;5023083;28;20684;-51
2023/11/28 09:53:16;;;;;;;4.30;3.90;;;3.70;55.30;;;;;;5023207;28;20245;-54
2023/11/28 09:55:44;;;;;;;4.10;3.80;;;4.00;59.80;;;;;;5020507;28;20210;-51
2023/11/28 09:58:14;;;;;;;4.03;3.63;;;4.20;34.50;;;;;;5024193;28;20683;-53
2023/11/28 10:00:43;;;;;;;3.93;3.70;;;4.20;31.30;;;;;;5027151;28;20223;-52
2023/11/28 10:03:11;;;;;;;3.87;3.57;;;4.10;27.40;;;;;;5035573;28;20297;-53
2023/11/28 10:05:40;;;;;;;4.53;3.57;;;4.00;25.00;;;;;;5032182;28;20236;-52
2023/11/28 10:08:12;;;;;;;4.10;3.67;;;3.90;32.70;;;;;;5029582;28;20217;-52
2023/11/28 10:10:44;;;;;;;3.70;3.50;;;4.00;35.80;;;;;;5022158;28;20217;-52
2023/11/28 10:13:13;;;;;;;3.40;3.20;;;4.10;27.10;;;;;;5024359;28;20223;-54
2023/11/28 10:15:42;;;;;;;4.17;3.87;;;4.20;39.00;;;;;;5022836;28;20235;-54
2023/11/28 10:18:10;;;;;;;3.73;3.53;;;4.20;18.70;;;;;;5025750;28;20224;-51
2023/11/28 10:20:39;;;;;;;6.00;3.77;;;4.30;23.90;;;;;;5023206;28;20217;-52
2023/11/28 10:23:07;;;;;;;3.50;3.30;;;4.20;21.70;;;;;;5027442;28;20229;-52
2023/11/28 10:25:37;;;;;;;3.93;3.73;;;4.20;30.00;;;;;;5027428;28;20255;-52
2023/11/28 10:28:08;;;;;;;3.87;3.57;;;4.40;27.70;;;;;;5021097;28;20304;-54
2023/11/28 10:30:40;;;;;;;3.77;3.37;;;4.50;34.30;;;;;;5021524;28;20230;-55
2023/11/28 10:33:09;;;;;;;3.83;3.53;;;4.50;8.20;;;;;;5023282;28;20263;-54
2023/11/28 10:35:42;;;;;;;3.80;3.60;;;4.60;19.50;;;;;;5022204;28;20233;-53
2023/11/28 10:38:15;;;;;;;3.40;3.20;;;4.70;21.80;;;;;;5033647;28;20221;-53
2023/11/28 10:40:47;;;;;;;3.40;3.20;;;4.80;1.00;;;;;;5027796;28;20690;-55
2023/11/28 10:43:16;;;;;;;5.03;3.40;;;4.60;1.00;;;;;;5021358;28;20594;-55
2023/11/28 10:45:45;;;;;;;3.90;3.60;;;4.60;1.00;;;;;;5036084;28;20579;-55
2023/11/28 10:48:14;;;;;;;4.10;3.53;;;4.70;8.60;;;;;;5019250;28;20308;-54
2023/11/28 10:50:42;;;;;;;4.67;4.10;;;5.00;7.60;;;;;;5024376;28;20230;-55
2023/11/28 10:53:14;;;;;;;3.30;3.20;;;5.00;10.80;;;;;;5024912;28;20221;-53
2023/11/28 10:55:43;;;;;;;3.27;3.07;;;5.00;1.00;;;;;;5024157;28;20205;-55
2023/11/28 10:58:16;;;;;;;3.43;3.23;;;5.10;1.00;;;;;;5027690;28;20223;-59
2023/11/28 11:00:46;;;;;;;3.83;3.53;;;4.90;1.00;;;;;;5019008;28;20210;-54
2023/11/28 11:03:16;;;;;;;3.37;3.23;;;4.80;1.00;;;;;;5026706;28;20227;-53
2023/11/28 11:05:44;;;;;;;3.47;3.27;;;4.70;1.00;;;;;;5024328;28;20555;-53
2023/11/28 11:08:13;;;;;;;3.80;3.50;;;4.70;1.00;;;;;;5023844;28;20700;-51
2023/11/28 11:10:42;;;;;;;3.83;3.53;;;4.80;1.00;;;;;;5025479;28;20236;-52
2023/11/28 11:13:36;;;;;;;3.20;3.10;;;4.90;1.00;;;;;;5025562;28;20217;-55
2023/11/28 11:16:15;;;;;;;4.47;3.10;;;5.10;1.00;;;;;;5026954;28;20244;-53
2023/11/28 11:18:48;;;;;;;3.07;2.93;;;5.00;1.00;;;;;;5031013;28;20216;-54
2023/11/28 11:21:23;;;;;;;3.73;3.00;;;4.90;1.00;;;;;;5025300;28;20221;-51
2023/11/28 11:23:55;;;;;;;3.63;3.43;;;5.00;1.00;;;;;;5028237;28;20240;-49
2023/11/28 11:26:39;;;;;;;5.80;3.03;;;5.00;1.00;;;;;;5023743;28;20232;-52
2023/11/28 11:29:19;;;;;;;3.07;2.87;;;5.10;1.00;;;;;;5022029;28;20217;-51
2023/11/28 11:31:49;;;;;;;2.67;2.57;;;5.20;1.00;;;;;;5024926;28;20193;-51
2023/11/28 11:34:44;;;;;;;5.57;3.10;;;5.10;1.00;;;;;;5025221;28;20848;-53
2023/11/28 11:37:14;;;;;;;3.40;3.00;;;5.10;1.00;;;;;;4989507;28;20224;-50
2023/11/28 11:39:43;;;;;;;3.33;3.13;;;5.20;1.00;;;;;;5027318;28;20224;-52
2023/11/28 11:42:13;;;;;;;3.77;3.17;;;5.30;1.00;;;;;;5026214;28;20213;-53
2023/11/28 11:44:46;;;;;;;3.07;2.87;;;5.40;1.00;;;;;;5022773;28;20236;-50
2023/11/28 11:47:16;;;;;;;3.10;2.87;;;5.40;1.00;;;;;;5024580;28;20213;-53
2023/11/28 11:49:46;;;;;;;4.70;3.10;;;5.40;1.00;;;;;;5028247;28;20287;-54
2023/11/28 11:52:15;;;;;;;3.77;3.47;;;5.30;1.00;;;;;;5030389;28;20787;-49
2023/11/28 11:54:45;;;;;;;2.93;2.73;;;5.40;1.00;;;;;;5027828;28;20267;-50
2023/11/28 11:57:15;;;;;;;3.60;3.40;;;5.50;1.00;;;;;;5024975;28;20701;-50
2023/11/28 11:59:45;;;;;;;3.40;3.17;;;5.50;1.00;;;;;;5026789;28;20229;-53
2023/11/28 12:02:13;;;;;;;3.33;3.17;;;5.60;1.00;;;;;;5025464;28;20222;-51
2023/11/28 12:04:43;;;;;;;3.00;2.90;;;5.60;1.00;;;;;;5025641;28;20201;-51
2023/11/28 12:07:13;;;;;;;3.23;3.03;;;5.70;1.00;;;;;;5026959;28;20623;-48
2023/11/28 12:09:42;;;;;;;3.60;3.30;;;5.80;1.00;;;;;;5023372;28;20220;-48
2023/11/28 12:12:12;;;;;;;3.20;3.00;;;5.80;1.00;;;;;;5022484;28;20225;-52
2023/11/28 12:14:42;;;;;;;3.27;3.07;;;5.80;1.00;;;;;;5027573;28;20548;-49
2023/11/28 12:17:12;;;;;;;5.40;3.20;;;5.80;1.00;;;;;;5026861;28;20248;-49
2023/11/28 12:19:40;;;;;;;3.10;2.90;;;5.80;1.00;;;;;;5027555;28;20198;-51
2023/11/28 12:22:10;;;;;;;3.33;3.10;;;5.80;1.00;;;;;;5026572;28;20228;-51
2023/11/28 12:24:38;;;;;;;3.10;2.90;;;5.80;99.90;;;;;;5025810;28;20253;-53
2023/11/28 12:27:07;;;;;;;2.83;2.73;;;5.70;1.00;;;;;;5024624;28;20290;-54
2023/11/28 12:29:37;;;;;;;2.97;2.77;;;5.60;99.90;;;;;;5029075;28;20236;-52
2023/11/28 12:32:06;;;;;;;3.17;3.07;;;5.50;1.00;;;;;;5032335;28;20671;-54
2023/11/28 12:34:39;;;;;;;3.20;3.00;;;5.40;1.00;;;;;;5023111;28;20235;-52
2023/11/28 12:37:09;;;;;;;3.47;3.17;;;5.30;1.00;;;;;;5026179;28;20225;-52
2023/11/28 12:39:40;;;;;;;3.30;3.10;;;5.40;1.00;;;;;;5026746;28;20217;-53
2023/11/28 12:42:09;;;;;;;2.90;2.80;;;5.50;1.00;;;;;;5024836;28;20283;-51
2023/11/28 12:44:38;;;;;;;3.20;3.03;;;5.60;99.90;;;;;;5026366;28;20276;-51
2023/11/28 12:47:06;;;;;;;2.70;2.60;;;5.60;1.00;;;;;;5022296;28;20234;-53
2023/11/28 12:49:37;;;;;;;2.67;2.57;;;5.60;99.90;;;;;;5039918;28;20198;-52
2023/11/28 12:52:05;;;;;;;2.50;2.40;;;5.60;1.00;;;;;;5023466;28;20230;-49
2023/11/28 12:54:35;;;;;;;4.00;2.90;;;5.50;99.90;;;;;;5023243;28;20612;-52
2023/11/28 12:57:03;;;;;;;3.27;3.07;;;5.50;1.00;;;;;;5022780;28;20229;-52
2023/11/28 12:59:32;;;;;;;2.90;2.70;;;5.40;1.00;;;;;;5027227;28;20315;-50
2023/11/28 13:02:01;;;;;;;5.87;2.97;;;5.50;1.00;;;;;;5023878;28;20194;-49